sensor_id;sensor_type;location;lat;lon;timestamp;pressure;altitude;pressure_sealevel;temperature;humidity
62708;BME280;48769;51.624;5.886;2023-04-28T00:00:30;101173.91;;;10.15;71.74
62708;BME280;48769;51.624;5.886;2023-04-28T00:02:56;101171.28;;;10.15;71.93
62708;BME280;48769;51.624;5.886;2023-04-28T00:05:23;101168.81;;;10.10;71.97
62708;BME280;48769;51.624;5.886;2023-04-28T00:07:49;101167.03;;;10.11;72.63
62708;BME280;48769;51.624;5.886;2023-04-28T00:10:14;101161.94;;;10.07;72.57
62708;BME280;48769;51.624;5.886;2023-04-28T00:12:40;101164.56;;;10.07;72.73
62708;BME280;48769;51.624;5.886;2023-04-28T00:15:05;101165.34;;;10.10;73.44
62708;BME280;48769;51.624;5.886;2023-04-28T00:17:34;101161.00;;;10.09;72.85
62708;BME280;48769;51.624;5.886;2023-04-28T00:19:59;101159.88;;;10.14;73.77
62708;BME280;48769;51.624;5.886;2023-04-28T00:22:25;101159.91;;;10.13;74.24
62708;BME280;48769;51.624;5.886;2023-04-28T00:24:50;101154.78;;;10.10;74.85
62708;BME280;48769;51.624;5.886;2023-04-28T00:27:16;101160.00;;;10.11;75.60
62708;BME280;48769;51.624;5.886;2023-04-28T00:29:41;101157.69;;;10.03;76.47
62708;BME280;48769;51.624;5.886;2023-04-28T00:32:09;101154.66;;;9.92;76.10
62708;BME280;48769;51.624;5.886;2023-04-28T00:34:45;101149.41;;;9.92;76.85
62708;BME280;48769;51.624;5.886;2023-04-28T00:37:11;101149.25;;;9.95;77.90
62708;BME280;48769;51.624;5.886;2023-04-28T00:39:36;101151.91;;;9.95;78.11
62708;BME280;48769;51.624;5.886;2023-04-28T00:42:01;101147.38;;;9.97;79.17
62708;BME280;48769;51.624;5.886;2023-04-28T00:44:28;101144.13;;;9.92;79.72
62708;BME280;48769;51.624;5.886;2023-04-28T00:46:55;101144.03;;;9.94;80.14
62708;BME280;48769;51.624;5.886;2023-04-28T00:49:20;101144.13;;;9.92;82.69
62708;BME280;48769;51.624;5.886;2023-04-28T00:51:45;101149.41;;;9.92;82.49
62708;BME280;48769;51.624;5.886;2023-04-28T00:54:14;101137.13;;;9.91;82.12
62708;BME280;48769;51.624;5.886;2023-04-28T00:56:40;101125.63;;;9.92;82.47
62708;BME280;48769;51.624;5.886;2023-04-28T00:59:05;101128.28;;;9.92;83.20
62708;BME280;48769;51.624;5.886;2023-04-28T01:01:31;101119.56;;;9.90;84.03
62708;BME280;48769;51.624;5.886;2023-04-28T01:03:56;101118.66;;;9.91;84.02
62708;BME280;48769;51.624;5.886;2023-04-28T01:06:22;101121.56;;;9.85;84.24
62708;BME280;48769;51.624;5.886;2023-04-28T01:08:48;101119.84;;;9.64;86.00
62708;BME280;48769;51.624;5.886;2023-04-28T01:11:15;101112.53;;;9.50;86.62
62708;BME280;48769;51.624;5.886;2023-04-28T01:13:40;101107.69;;;9.39;86.50
62708;BME280;48769;51.624;5.886;2023-04-28T01:16:06;101110.97;;;9.46;86.46
62708;BME280;48769;51.624;5.886;2023-04-28T01:18:32;101118.00;;;9.45;87.97
62708;BME280;48769;51.624;5.886;2023-04-28T01:20:58;101112.84;;;9.42;90.72
62708;BME280;48769;51.624;5.886;2023-04-28T01:23:24;101114.31;;;9.49;91.08
62708;BME280;48769;51.624;5.886;2023-04-28T01:25:49;101100.22;;;9.50;92.09
62708;BME280;48769;51.624;5.886;2023-04-28T01:28:14;101108.31;;;9.46;92.91
62708;BME280;48769;51.624;5.886;2023-04-28T01:30:40;101096.03;;;9.45;94.49
62708;BME280;48769;51.624;5.886;2023-04-28T01:33:05;101096.31;;;9.39;95.20
62708;BME280;48769;51.624;5.886;2023-04-28T01:35:30;101083.19;;;9.37;94.56
62708;BME280;48769;51.624;5.886;2023-04-28T01:37:56;101088.34;;;9.40;94.23
62708;BME280;48769;51.624;5.886;2023-04-28T01:40:21;101065.69;;;9.36;95.35
62708;BME280;48769;51.624;5.886;2023-04-28T01:42:47;101072.53;;;9.40;95.44
62708;BME280;48769;51.624;5.886;2023-04-28T01:45:12;101076.06;;;9.39;95.33
62708;BME280;48769;51.624;5.886;2023-04-28T01:47:37;101071.81;;;9.36;95.96
62708;BME280;48769;51.624;5.886;2023-04-28T01:50:04;101069.94;;;9.39;95.83
62708;BME280;48769;51.624;5.886;2023-04-28T01:52:29;101071.84;;;9.35;95.96
62708;BME280;48769;51.624;5.886;2023-04-28T01:54:54;101070.88;;;9.38;96.01
62708;BME280;48769;51.624;5.886;2023-04-28T01:57:20;101069.09;;;9.38;96.33
62708;BME280;48769;51.624;5.886;2023-04-28T01:59:45;101070.41;;;9.28;95.28
62708;BME280;48769;51.624;5.886;2023-04-28T02:02:11;101070.66;;;9.22;95.39
62708;BME280;48769;51.624;5.886;2023-04-28T02:04:37;101060.31;;;9.17;95.91
62708;BME280;48769;51.624;5.886;2023-04-28T02:07:02;101065.00;;;9.10;96.19
62708;BME280;48769;51.624;5.886;2023-04-28T02:09:28;101059.97;;;9.04;96.62
62708;BME280;48769;51.624;5.886;2023-04-28T02:11:53;101048.59;;;9.04;97.40
62708;BME280;48769;51.624;5.886;2023-04-28T02:14:18;101040.84;;;8.99;97.59
62708;BME280;48769;51.624;5.886;2023-04-28T02:16:44;101027.16;;;8.91;99.37
62708;BME280;48769;51.624;5.886;2023-04-28T02:19:09;101014.63;;;8.96;99.31
62708;BME280;48769;51.624;5.886;2023-04-28T02:21:34;101026.91;;;8.97;100.00
62708;BME280;48769;51.624;5.886;2023-04-28T02:24:00;101032.16;;;8.97;99.37
62708;BME280;48769;51.624;5.886;2023-04-28T02:26:25;101030.56;;;8.93;99.80
62708;BME280;48769;51.624;5.886;2023-04-28T02:28:50;101035.47;;;9.02;99.26
62708;BME280;48769;51.624;5.886;2023-04-28T02:31:16;101044.03;;;9.07;99.09
62708;BME280;48769;51.624;5.886;2023-04-28T02:33:41;101047.44;;;9.09;99.01
62708;BME280;48769;51.624;5.886;2023-04-28T02:36:07;101043.81;;;9.12;97.73
62708;BME280;48769;51.624;5.886;2023-04-28T02:38:33;101042.31;;;9.06;98.70
62708;BME280;48769;51.624;5.886;2023-04-28T02:40:59;101028.34;;;9.04;99.70
62708;BME280;48769;51.624;5.886;2023-04-28T02:43:25;101038.94;;;9.03;100.00
62708;BME280;48769;51.624;5.886;2023-04-28T02:45:51;101027.06;;;8.93;100.00
62708;BME280;48769;51.624;5.886;2023-04-28T02:48:17;101023.78;;;8.87;100.00
62708;BME280;48769;51.624;5.886;2023-04-28T02:50:42;101013.19;;;8.89;100.00
62708;BME280;48769;51.624;5.886;2023-04-28T02:53:07;101005.94;;;8.94;100.00
62708;BME280;48769;51.624;5.886;2023-04-28T02:55:33;100996.72;;;8.84;100.00
62708;BME280;48769;51.624;5.886;2023-04-28T02:57:58;100981.94;;;8.80;100.00
62708;BME280;48769;51.624;5.886;2023-04-28T03:00:23;100972.47;;;8.76;100.00
62708;BME280;48769;51.624;5.886;2023-04-28T03:02:49;100976.03;;;8.75;100.00
62708;BME280;48769;51.624;5.886;2023-04-28T03:05:14;100971.91;;;8.68;100.00
62708;BME280;48769;51.624;5.886;2023-04-28T03:07:40;100966.81;;;8.64;100.00
62708;BME280;48769;51.624;5.886;2023-04-28T03:10:06;100958.91;;;8.64;100.00
62708;BME280;48769;51.624;5.886;2023-04-28T03:12:31;100947.19;;;8.72;100.00
62708;BME280;48769;51.624;5.886;2023-04-28T03:14:56;100936.69;;;8.70;100.00
62708;BME280;48769;51.624;5.886;2023-04-28T03:17:22;100930.25;;;8.77;100.00
62708;BME280;48769;51.624;5.886;2023-04-28T03:19:47;100948.16;;;8.69;100.00
62708;BME280;48769;51.624;5.886;2023-04-28T03:22:12;100954.63;;;8.62;100.00
62708;BME280;48769;51.624;5.886;2023-04-28T03:24:38;100957.66;;;8.51;100.00
62708;BME280;48769;51.624;5.886;2023-04-28T03:27:03;100959.69;;;8.66;100.00
62708;BME280;48769;51.624;5.886;2023-04-28T03:29:30;100964.56;;;8.76;100.00
62708;BME280;48769;51.624;5.886;2023-04-28T03:31:55;100965.88;;;8.86;100.00
62708;BME280;48769;51.624;5.886;2023-04-28T03:34:21;100966.56;;;8.91;100.00
62708;BME280;48769;51.624;5.886;2023-04-28T03:36:46;100963.59;;;8.78;100.00
62708;BME280;48769;51.624;5.886;2023-04-28T03:39:12;100940.47;;;8.85;100.00
62708;BME280;48769;51.624;5.886;2023-04-28T03:41:37;100942.91;;;8.89;100.00
62708;BME280;48769;51.624;5.886;2023-04-28T03:44:02;100934.00;;;8.92;100.00
62708;BME280;48769;51.624;5.886;2023-04-28T03:46:28;100940.84;;;8.96;100.00
62708;BME280;48769;51.624;5.886;2023-04-28T03:48:53;100944.28;;;8.98;100.00
62708;BME280;48769;51.624;5.886;2023-04-28T03:51:18;100934.69;;;8.97;100.00
62708;BME280;48769;51.624;5.886;2023-04-28T03:53:44;100944.28;;;8.98;100.00
62708;BME280;48769;51.624;5.886;2023-04-28T03:56:09;100936.13;;;9.04;100.00
62708;BME280;48769;51.624;5.886;2023-04-28T03:58:34;100939.03;;;8.98;100.00
62708;BME280;48769;51.624;5.886;2023-04-28T04:01:00;100929.34;;;8.99;100.00
62708;BME280;48769;51.624;5.886;2023-04-28T04:03:26;100924.91;;;8.99;100.00
62708;BME280;48769;51.624;5.886;2023-04-28T04:05:51;100929.34;;;8.99;100.00
62708;BME280;48769;51.624;5.886;2023-04-28T04:08:18;100924.66;;;9.05;100.00
62708;BME280;48769;51.624;5.886;2023-04-28T04:10:43;100924.16;;;8.97;100.00
62708;BME280;48769;51.624;5.886;2023-04-28T04:13:09;100920.38;;;9.03;100.00
62708;BME280;48769;51.624;5.886;2023-04-28T04:15:34;100921.22;;;9.03;100.00
62708;BME280;48769;51.624;5.886;2023-04-28T04:18:00;100919.25;;;9.08;100.00
62708;BME280;48769;51.624;5.886;2023-04-28T04:20:25;100924.59;;;9.07;100.00
62708;BME280;48769;51.624;5.886;2023-04-28T04:22:51;100925.09;;;9.15;100.00
62708;BME280;48769;51.624;5.886;2023-04-28T04:25:16;100933.59;;;9.22;100.00
62708;BME280;48769;51.624;5.886;2023-04-28T04:27:41;100928.03;;;9.28;100.00
62708;BME280;48769;51.624;5.886;2023-04-28T04:30:07;100928.97;;;9.27;100.00
62708;BME280;48769;51.624;5.886;2023-04-28T04:32:32;100930.69;;;9.28;100.00
62708;BME280;48769;51.624;5.886;2023-04-28T04:34:58;100924.28;;;9.33;100.00
62708;BME280;48769;51.624;5.886;2023-04-28T04:37:23;100913.53;;;9.38;100.00
62708;BME280;48769;51.624;5.886;2023-04-28T04:39:48;100908.38;;;9.35;100.00
62708;BME280;48769;51.624;5.886;2023-04-28T04:42:14;100907.47;;;9.36;100.00
62708;BME280;48769;51.624;5.886;2023-04-28T04:44:39;100909.09;;;9.39;100.00
62708;BME280;48769;51.624;5.886;2023-04-28T04:47:04;100909.81;;;9.42;100.00
62708;BME280;48769;51.624;5.886;2023-04-28T04:49:30;100908.78;;;9.46;100.00
62708;BME280;48769;51.624;5.886;2023-04-28T04:51:55;100905.84;;;9.52;100.00
62708;BME280;48769;51.624;5.886;2023-04-28T04:54:21;100904.91;;;9.53;100.00
62708;BME280;48769;51.624;5.886;2023-04-28T04:56:46;100911.63;;;9.60;100.00
62708;BME280;48769;51.624;5.886;2023-04-28T04:59:12;100910.53;;;9.65;100.00
62708;BME280;48769;51.624;5.886;2023-04-28T05:01:37;100909.50;;;9.69;100.00
62708;BME280;48769;51.624;5.886;2023-04-28T05:04:03;100906.06;;;9.67;100.00
62708;BME280;48769;51.624;5.886;2023-04-28T05:06:28;100906.63;;;9.54;100.00
62708;BME280;48769;51.624;5.886;2023-04-28T05:08:53;100908.34;;;9.55;100.00
62708;BME280;48769;51.624;5.886;2023-04-28T05:11:20;100899.56;;;9.55;100.00
62708;BME280;48769;51.624;5.886;2023-04-28T05:13:46;100900.06;;;9.63;100.00
62708;BME280;48769;51.624;5.886;2023-04-28T05:16:11;100900.63;;;9.70;100.00
62708;BME280;48769;51.624;5.886;2023-04-28T05:18:37;100887.94;;;9.78;100.00
62708;BME280;48769;51.624;5.886;2023-04-28T05:21:02;100890.72;;;9.75;100.00
62708;BME280;48769;51.624;5.886;2023-04-28T05:23:27;100897.63;;;9.77;100.00
62708;BME280;48769;51.624;5.886;2023-04-28T05:25:53;100885.94;;;9.83;100.00
62708;BME280;48769;51.624;5.886;2023-04-28T05:28:19;100888.66;;;9.81;100.00
62708;BME280;48769;51.624;5.886;2023-04-28T05:30:44;100896.13;;;9.91;100.00
62708;BME280;48769;51.624;5.886;2023-04-28T05:33:10;100893.13;;;9.98;100.00
62708;BME280;48769;51.624;5.886;2023-04-28T05:35:35;100888.47;;;10.03;100.00
62708;BME280;48769;51.624;5.886;2023-04-28T05:38:01;100887.47;;;10.06;100.00
62708;BME280;48769;51.624;5.886;2023-04-28T05:40:26;100889.31;;;10.04;100.00
62708;BME280;48769;51.624;5.886;2023-04-28T05:42:52;100867.06;;;10.10;100.00
62708;BME280;48769;51.624;5.886;2023-04-28T05:45:18;100871.03;;;10.18;100.00
62708;BME280;48769;51.624;5.886;2023-04-28T05:47:43;100873.72;;;10.17;100.00
62708;BME280;48769;51.624;5.886;2023-04-28T05:50:09;100866.59;;;10.19;100.00
62708;BME280;48769;51.624;5.886;2023-04-28T05:52:38;100864.13;;;10.16;100.00
62708;BME280;48769;51.624;5.886;2023-04-28T05:55:03;100865.06;;;10.15;100.00
62708;BME280;48769;51.624;5.886;2023-04-28T05:57:29;100860.78;;;10.12;100.00
62708;BME280;48769;51.624;5.886;2023-04-28T05:59:54;100865.66;;;10.20;100.00
62708;BME280;48769;51.624;5.886;2023-04-28T06:02:19;100866.88;;;10.32;100.00
62708;BME280;48769;51.624;5.886;2023-04-28T06:04:45;100876.13;;;10.40;100.00
62708;BME280;48769;51.624;5.886;2023-04-28T06:07:10;100882.88;;;10.46;100.00
62708;BME280;48769;51.624;5.886;2023-04-28T06:09:36;100877.22;;;10.53;100.00
62708;BME280;48769;51.624;5.886;2023-04-28T06:12:01;100873.81;;;10.51;100.00
62708;BME280;48769;51.624;5.886;2023-04-28T06:14:28;100873.50;;;10.58;100.00
62708;BME280;48769;51.624;5.886;2023-04-28T06:16:53;100868.06;;;10.61;100.00
62708;BME280;48769;51.624;5.886;2023-04-28T06:19:18;100870.81;;;10.75;100.00
62708;BME280;48769;51.624;5.886;2023-04-28T06:21:44;100878.44;;;10.81;100.00
62708;BME280;48769;51.624;5.886;2023-04-28T06:24:10;100873.63;;;10.89;100.00
62708;BME280;48769;51.624;5.886;2023-04-28T06:26:36;100874.47;;;10.90;100.00
62708;BME280;48769;51.624;5.886;2023-04-28T06:29:01;100877.97;;;10.90;100.00
62708;BME280;48769;51.624;5.886;2023-04-28T06:31:27;100878.75;;;10.92;100.00
62708;BME280;48769;51.624;5.886;2023-04-28T06:33:52;100878.66;;;10.94;100.00
62708;BME280;48769;51.624;5.886;2023-04-28T06:36:18;100878.25;;;11.02;100.00
62708;BME280;48769;51.624;5.886;2023-04-28T06:38:44;100883.38;;;11.05;100.00
62708;BME280;48769;51.624;5.886;2023-04-28T06:41:09;100885.63;;;11.12;100.00
62708;BME280;48769;51.624;5.886;2023-04-28T06:43:35;100887.47;;;11.10;100.00
62708;BME280;48769;51.624;5.886;2023-04-28T06:46:01;100878.97;;;11.05;100.00
62708;BME280;48769;51.624;5.886;2023-04-28T06:48:26;100868.88;;;10.96;100.00
62708;BME280;48769;51.624;5.886;2023-04-28T06:50:52;100863.31;;;11.00;100.00
62708;BME280;48769;51.624;5.886;2023-04-28T06:53:17;100853.97;;;11.11;100.00
62708;BME280;48769;51.624;5.886;2023-04-28T06:55:42;100866.38;;;11.26;100.00
62708;BME280;48769;51.624;5.886;2023-04-28T06:58:08;100864.94;;;11.36;100.00
62708;BME280;48769;51.624;5.886;2023-04-28T07:00:33;100864.53;;;11.44;100.00
62708;BME280;48769;51.624;5.886;2023-04-28T07:02:59;100861.00;;;11.43;100.00
62708;BME280;48769;51.624;5.886;2023-04-28T07:05:25;100861.34;;;11.53;100.00
62708;BME280;48769;51.624;5.886;2023-04-28T07:07:51;100854.38;;;11.68;100.00
62708;BME280;48769;51.624;5.886;2023-04-28T07:10:16;100855.72;;;11.75;100.00
62708;BME280;48769;51.624;5.886;2023-04-28T07:12:42;100864.19;;;11.98;100.00
62708;BME280;48769;51.624;5.886;2023-04-28T07:15:07;100855.97;;;12.02;100.00
62708;BME280;48769;51.624;5.886;2023-04-28T07:17:33;100863.06;;;12.02;100.00
62708;BME280;48769;51.624;5.886;2023-04-28T07:19:58;100865.53;;;12.05;100.00
62708;BME280;48769;51.624;5.886;2023-04-28T07:22:23;100867.66;;;12.14;100.00
62708;BME280;48769;51.624;5.886;2023-04-28T07:24:49;100869.38;;;12.15;100.00
62708;BME280;48769;51.624;5.886;2023-04-28T07:27:15;100868.59;;;12.29;100.00
62708;BME280;48769;51.624;5.886;2023-04-28T07:29:41;100873.44;;;12.36;100.00
62708;BME280;48769;51.624;5.886;2023-04-28T07:32:06;100863.00;;;12.33;100.00
62708;BME280;48769;51.624;5.886;2023-04-28T07:34:35;100870.06;;;12.49;100.00
62708;BME280;48769;51.624;5.886;2023-04-28T07:37:02;100864.22;;;12.58;100.00
62708;BME280;48769;51.624;5.886;2023-04-28T07:39:27;100861.59;;;12.72;100.00
62708;BME280;48769;51.624;5.886;2023-04-28T07:41:53;100857.69;;;12.63;100.00
62708;BME280;48769;51.624;5.886;2023-04-28T07:44:18;100856.75;;;12.65;100.00
62708;BME280;48769;51.624;5.886;2023-04-28T07:46:44;100862.50;;;12.57;100.00
62708;BME280;48769;51.624;5.886;2023-04-28T07:49:09;100854.13;;;12.65;100.00
62708;BME280;48769;51.624;5.886;2023-04-28T07:51:35;100848.53;;;12.69;100.00
62708;BME280;48769;51.624;5.886;2023-04-28T07:54:00;100851.75;;;12.74;100.00
62708;BME280;48769;51.624;5.886;2023-04-28T07:56:26;100853.38;;;12.91;100.00
62708;BME280;48769;51.624;5.886;2023-04-28T07:58:51;100852.16;;;13.11;100.00
62708;BME280;48769;51.624;5.886;2023-04-28T08:01:17;100848.53;;;13.12;100.00
62708;BME280;48769;51.624;5.886;2023-04-28T08:03:42;100850.25;;;13.13;100.00
62708;BME280;48769;51.624;5.886;2023-04-28T08:06:08;100856.13;;;13.18;100.00
62708;BME280;48769;51.624;5.886;2023-04-28T08:08:33;100863.81;;;13.37;100.00
62708;BME280;48769;51.624;5.886;2023-04-28T08:10:59;100858.25;;;13.27;100.00
62708;BME280;48769;51.624;5.886;2023-04-28T08:13:24;100857.81;;;13.19;100.00
62708;BME280;48769;51.624;5.886;2023-04-28T08:15:51;100851.59;;;13.20;100.00
62708;BME280;48769;51.624;5.886;2023-04-28T08:18:16;100851.41;;;13.23;100.00
62708;BME280;48769;51.624;5.886;2023-04-28T08:20:42;100850.28;;;13.27;100.00
62708;BME280;48769;51.624;5.886;2023-04-28T08:23:08;100854.44;;;13.31;100.00
62708;BME280;48769;51.624;5.886;2023-04-28T08:25:34;100861.84;;;13.26;100.00
62708;BME280;48769;51.624;5.886;2023-04-28T08:27:59;100866.19;;;13.13;100.00
62708;BME280;48769;51.624;5.886;2023-04-28T08:30:25;100865.22;;;13.14;100.00
62708;BME280;48769;51.624;5.886;2023-04-28T08:32:50;100860.00;;;13.13;100.00
62708;BME280;48769;51.624;5.886;2023-04-28T08:35:16;100862.19;;;12.92;100.00
62708;BME280;48769;51.624;5.886;2023-04-28T08:37:41;100868.63;;;13.02;100.00
62708;BME280;48769;51.624;5.886;2023-04-28T08:40:07;100858.78;;;13.18;100.00
62708;BME280;48769;51.624;5.886;2023-04-28T08:42:36;100855.69;;;13.26;100.00
62708;BME280;48769;51.624;5.886;2023-04-28T08:45:05;100856.53;;;13.26;100.00
62708;BME280;48769;51.624;5.886;2023-04-28T08:47:35;100857.84;;;13.33;100.00
62708;BME280;48769;51.624;5.886;2023-04-28T08:50:06;100870.16;;;13.35;100.00
62708;BME280;48769;51.624;5.886;2023-04-28T08:52:33;100861.25;;;13.07;100.00
62708;BME280;48769;51.624;5.886;2023-04-28T08:55:00;100858.00;;;13.02;100.00
62708;BME280;48769;51.624;5.886;2023-04-28T08:57:48;100866.44;;;13.08;100.00
62708;BME280;48769;51.624;5.886;2023-04-28T09:00:14;100870.72;;;12.97;100.00
62708;BME280;48769;51.624;5.886;2023-04-28T09:02:39;100865.19;;;12.71;100.00
62708;BME280;48769;51.624;5.886;2023-04-28T09:05:12;100860.44;;;12.76;100.00
62708;BME280;48769;51.624;5.886;2023-04-28T09:07:38;100862.19;;;12.92;100.00
62708;BME280;48769;51.624;5.886;2023-04-28T09:10:20;100865.69;;;13.21;100.00
62708;BME280;48769;51.624;5.886;2023-04-28T09:12:47;100857.63;;;13.22;100.00
62708;BME280;48769;51.624;5.886;2023-04-28T09:15:30;100855.69;;;13.26;100.00
62708;BME280;48769;51.624;5.886;2023-04-28T09:17:55;100855.22;;;13.33;100.00
62708;BME280;48769;51.624;5.886;2023-04-28T09:20:27;100854.63;;;13.43;100.00
62708;BME280;48769;51.624;5.886;2023-04-28T09:22:55;100859.56;;;13.49;100.00
62708;BME280;48769;51.624;5.886;2023-04-28T09:25:21;100845.66;;;13.58;100.00
62708;BME280;48769;51.624;5.886;2023-04-28T09:27:51;100848.91;;;13.63;100.00
62708;BME280;48769;51.624;5.886;2023-04-28T09:30:17;100857.34;;;13.55;100.00
62708;BME280;48769;51.624;5.886;2023-04-28T09:32:42;100843.13;;;13.56;100.00
62708;BME280;48769;51.624;5.886;2023-04-28T09:35:08;100849.22;;;13.44;100.00
62708;BME280;48769;51.624;5.886;2023-04-28T09:37:34;100857.66;;;13.37;100.00
62708;BME280;48769;51.624;5.886;2023-04-28T09:40:05;100852.34;;;13.37;100.00
62708;BME280;48769;51.624;5.886;2023-04-28T09:42:35;100855.16;;;13.48;100.00
62708;BME280;48769;51.624;5.886;2023-04-28T09:47:28;100854.50;;;13.44;100.00
62708;BME280;48769;51.624;5.886;2023-04-28T09:49:59;100860.09;;;13.54;100.00
62708;BME280;48769;51.624;5.886;2023-04-28T09:52:25;100854.59;;;13.57;100.00
62708;BME280;48769;51.624;5.886;2023-04-28T09:54:53;100848.91;;;13.63;100.00
62708;BME280;48769;51.624;5.886;2023-04-28T09:57:19;100848.53;;;13.55;100.00
62708;BME280;48769;51.624;5.886;2023-04-28T09:59:51;100847.19;;;13.62;100.00
62708;BME280;48769;51.624;5.886;2023-04-28T10:02:19;100846.25;;;13.63;100.00
62708;BME280;48769;51.624;5.886;2023-04-28T10:04:47;100851.16;;;13.69;100.00
62708;BME280;48769;51.624;5.886;2023-04-28T10:07:14;100853.56;;;13.60;100.00
62708;BME280;48769;51.624;5.886;2023-04-28T10:09:41;100844.44;;;13.64;100.00
62708;BME280;48769;51.624;5.886;2023-04-28T10:12:14;100848.69;;;13.66;100.00
62708;BME280;48769;51.624;5.886;2023-04-28T10:14:40;100848.97;;;13.76;100.00
62708;BME280;48769;51.624;5.886;2023-04-28T10:17:06;100851.88;;;13.71;100.00
62708;BME280;48769;51.624;5.886;2023-04-28T10:19:33;100855.88;;;13.78;100.00
62708;BME280;48769;51.624;5.886;2023-04-28T10:22:23;100859.91;;;13.84;100.00
62708;BME280;48769;51.624;5.886;2023-04-28T10:27:42;100862.81;;;13.94;100.00
62708;BME280;48769;51.624;5.886;2023-04-28T10:32:35;100861.09;;;14.07;100.00
62708;BME280;48769;51.624;5.886;2023-04-28T10:38:03;100857.88;;;14.02;100.00
62708;BME280;48769;51.624;5.886;2023-04-28T10:40:39;100854.41;;;14.14;100.00
62708;BME280;48769;51.624;5.886;2023-04-28T10:43:07;100859.75;;;14.14;100.00
62708;BME280;48769;51.624;5.886;2023-04-28T10:56:11;100851.16;;;14.23;100.00
62708;BME280;48769;51.624;5.886;2023-04-28T10:58:38;100854.25;;;14.30;100.00
62708;BME280;48769;51.624;5.886;2023-04-28T11:01:24;100851.41;;;14.33;100.00
62708;BME280;48769;51.624;5.886;2023-04-28T11:03:57;100854.69;;;14.37;100.00
62708;BME280;48769;51.624;5.886;2023-04-28T11:11:37;100852.34;;;14.45;100.00
62708;BME280;48769;51.624;5.886;2023-04-28T11:16:55;100856.19;;;14.41;100.00
62708;BME280;48769;51.624;5.886;2023-04-28T11:19:25;100859.00;;;14.52;100.00
62708;BME280;48769;51.624;5.886;2023-04-28T11:21:53;100850.81;;;14.55;100.00
62708;BME280;48769;51.624;5.886;2023-04-28T11:24:20;100857.72;;;14.58;100.00
62708;BME280;48769;51.624;5.886;2023-04-28T11:26:47;100852.19;;;14.61;100.00
62708;BME280;48769;51.624;5.886;2023-04-28T11:29:13;100846.91;;;14.73;100.00
62708;BME280;48769;51.624;5.886;2023-04-28T11:31:39;100847.53;;;14.90;100.00
62708;BME280;48769;51.624;5.886;2023-04-28T11:34:09;100848.38;;;15.03;100.00
62708;BME280;48769;51.624;5.886;2023-04-28T11:36:41;100845.38;;;15.08;100.00
62708;BME280;48769;51.624;5.886;2023-04-28T11:39:09;100849.22;;;15.04;100.00
62708;BME280;48769;51.624;5.886;2023-04-28T11:41:35;100837.84;;;15.14;100.00
62708;BME280;48769;51.624;5.886;2023-04-28T11:44:11;100832.88;;;15.34;100.00
62708;BME280;48769;51.624;5.886;2023-04-28T11:46:47;100823.38;;;15.55;100.00
62708;BME280;48769;51.624;5.886;2023-04-28T11:49:15;100837.66;;;15.67;100.00
62708;BME280;48769;51.624;5.886;2023-04-28T11:51:41;100844.03;;;15.88;100.00
62708;BME280;48769;51.624;5.886;2023-04-28T11:54:08;100836.97;;;16.00;100.00
62708;BME280;48769;51.624;5.886;2023-04-28T11:56:40;100844.72;;;16.03;100.00
62708;BME280;48769;51.624;5.886;2023-04-28T11:59:07;100840.31;;;15.91;100.00
62708;BME280;48769;51.624;5.886;2023-04-28T12:01:34;100845.41;;;15.94;100.00
62708;BME280;48769;51.624;5.886;2023-04-28T12:04:08;100841.72;;;16.08;100.00
62708;BME280;48769;51.624;5.886;2023-04-28T12:06:33;100838.94;;;16.09;100.00
62708;BME280;48769;51.624;5.886;2023-04-28T12:08:59;100845.75;;;16.13;100.00
62708;BME280;48769;51.624;5.886;2023-04-28T12:11:28;100840.63;;;16.10;100.00
62708;BME280;48769;51.624;5.886;2023-04-28T12:14:05;100841.88;;;16.18;100.00
62708;BME280;48769;51.624;5.886;2023-04-28T12:16:38;100843.03;;;16.02;100.00
62708;BME280;48769;51.624;5.886;2023-04-28T12:19:07;100848.38;;;16.02;100.00
62708;BME280;48769;51.624;5.886;2023-04-28T12:21:35;100845.41;;;15.94;100.00
62708;BME280;48769;51.624;5.886;2023-04-28T12:24:12;100849.28;;;15.90;100.00
62708;BME280;48769;51.624;5.886;2023-04-28T12:26:37;100841.19;;;15.79;100.00
62708;BME280;48769;51.624;5.886;2023-04-28T12:29:03;100844.22;;;15.74;100.00
62708;BME280;48769;51.624;5.886;2023-04-28T12:31:28;100849.13;;;15.68;100.00
62708;BME280;48769;51.624;5.886;2023-04-28T12:33:53;100854.13;;;15.59;100.00
62708;BME280;48769;51.624;5.886;2023-04-28T12:36:19;100847.72;;;15.62;100.00
62708;BME280;48769;51.624;5.886;2023-04-28T12:38:47;100853.41;;;15.57;100.00
62708;BME280;48769;51.624;5.886;2023-04-28T12:41:13;100847.28;;;15.44;100.00
62708;BME280;48769;51.624;5.886;2023-04-28T12:43:39;100854.50;;;15.42;100.00
62708;BME280;48769;51.624;5.886;2023-04-28T12:46:05;100859.81;;;15.42;100.00
62708;BME280;48769;51.624;5.886;2023-04-28T12:48:32;100856.13;;;15.32;100.00
62708;BME280;48769;51.624;5.886;2023-04-28T12:50:58;100857.75;;;15.22;100.00
62708;BME280;48769;51.624;5.886;2023-04-28T12:53:24;100863.50;;;15.15;100.00
62708;BME280;48769;51.624;5.886;2023-04-28T12:55:49;100855.72;;;15.12;100.00
62708;BME280;48769;51.624;5.886;2023-04-28T12:58:15;100855.41;;;15.04;100.00
62708;BME280;48769;51.624;5.886;2023-04-28T13:00:40;100862.22;;;15.08;100.00
62708;BME280;48769;51.624;5.886;2023-04-28T13:03:05;100864.97;;;15.07;100.00
62708;BME280;48769;51.624;5.886;2023-04-28T13:05:31;100865.59;;;15.10;100.00
62708;BME280;48769;51.624;5.886;2023-04-28T13:07:57;100864.97;;;15.19;100.00
62708;BME280;48769;51.624;5.886;2023-04-28T13:10:22;100857.97;;;15.18;100.00